Time;durP1;ratioP1;P1;durP2;ratioP2;P2;SDS_P1;SDS_P2;PMS_P1;PMS_P2;Temp;Humidity;BMP_temperature;BMP_pressure;BME280_temperature;BME280_humidity;BME280_pressure;Samples;Min_cycle;Max_cycle;Signal;HPM_P1;HPM_P2
2023/03/12 00:00:45;;;;;;;10.07;3.47;;;;;;;2.26;62.38;94331.66;5026602;28;20053;-78
2023/03/12 00:03:11;;;;;;;8.43;4.25;;;;;;;2.31;62.84;94318.66;5030099;28;20112;-77
2023/03/12 00:05:38;;;;;;;5.97;4.07;;;;;;;2.50;61.90;94373.31;5030744;28;20049;-78
2023/03/12 00:08:04;;;;;;;12.15;3.75;;;;;;;2.02;63.21;94304.13;5030449;28;20044;-78
2023/03/12 00:10:30;;;;;;;7.38;3.50;;;;;;;1.83;61.87;94287.16;5030573;28;20480;-77
2023/03/12 00:12:55;;;;;;;13.40;4.78;;;;;;;2.39;62.97;94393.31;5029764;28;20495;-77
2023/03/12 00:15:22;;;;;;;14.35;4.18;;;;;;;1.84;62.33;94307.00;5029194;28;20175;-77
2023/03/12 00:17:47;;;;;;;9.70;3.88;;;;;;;2.35;62.23;94421.00;5028821;28;20048;-78
2023/03/12 00:20:13;;;;;;;13.05;6.60;;;;;;;1.81;61.43;94338.88;5030345;28;20045;-77
2023/03/12 00:22:39;;;;;;;14.75;4.68;;;;;;;1.82;62.47;94343.09;5027846;28;20547;-78
2023/03/12 00:25:09;;;;;;;7.32;4.93;;;;;;;2.36;61.89;94422.59;5022083;28;20488;-78
2023/03/12 00:27:35;;;;;;;11.03;7.20;;;;;;;2.16;61.71;94385.66;5021055;28;20120;-77
2023/03/12 00:30:01;;;;;;;8.80;4.63;;;;;;;2.02;62.17;94413.19;5030142;28;20129;-77
2023/03/12 00:32:26;;;;;;;23.52;5.10;;;;;;;1.72;62.43;94322.81;5027781;28;20467;-77
2023/03/12 00:34:55;;;;;;;7.60;5.05;;;;;;;2.33;63.13;94438.78;5028731;28;20423;-78
2023/03/12 00:37:21;;;;;;;7.20;5.07;;;;;;;2.36;62.05;94430.44;5028687;28;20044;-77
2023/03/12 00:39:47;;;;;;;9.32;5.38;;;;;;;1.99;62.14;94374.44;5012862;28;20037;-77
2023/03/12 00:42:13;;;;;;;11.70;4.75;;;;;;;2.16;61.92;94410.00;5009320;28;20066;-77
2023/03/12 00:44:38;;;;;;;11.10;5.15;;;;;;;2.01;61.80;94393.28;5010580;28;20057;-77
2023/03/12 00:47:04;;;;;;;11.43;5.22;;;;;;;1.73;61.67;94337.47;5030279;28;20167;-77
2023/03/12 00:49:29;;;;;;;15.63;5.57;;;;;;;1.90;61.05;94367.00;5046375;28;20060;-78
2023/03/12 00:51:54;;;;;;;6.70;5.40;;;;;;;2.01;62.27;94382.84;5029737;28;20117;-77
2023/03/12 00:54:20;;;;;;;14.70;5.88;;;;;;;2.04;62.00;94396.22;5021754;28;20037;-77
2023/03/12 00:56:47;;;;;;;10.40;5.35;;;;;;;2.30;61.59;94426.16;5038599;28;20041;-77
2023/03/12 00:59:15;;;;;;;10.98;5.53;;;;;;;1.81;62.18;94362.41;5019891;28;20080;-77
2023/03/12 01:01:41;;;;;;;16.20;4.72;;;;;;;1.81;62.29;94362.41;5021025;28;20064;-77
2023/03/12 01:04:07;;;;;;;15.77;6.22;;;;;;;2.22;62.98;94439.63;5026928;28;20530;-77
2023/03/12 01:06:33;;;;;;;7.93;5.68;;;;;;;2.09;61.93;94417.22;5014244;28;20034;-77
2023/03/12 01:09:00;;;;;;;9.45;5.07;;;;;;;2.09;62.57;94435.53;5010198;28;20044;-77
2023/03/12 01:11:26;;;;;;;8.77;5.38;;;;;;;1.94;62.89;94398.69;5024972;28;20037;-77
2023/03/12 01:13:51;;;;;;;10.90;5.35;;;;;;;2.16;62.56;94440.59;5027016;28;20036;-77
2023/03/12 01:16:16;;;;;;;12.98;5.35;;;;;;;1.71;62.69;94375.31;5044241;28;20037;-77
2023/03/12 01:18:42;;;;;;;10.13;5.60;;;;;;;2.15;62.78;94446.84;5028060;28;20044;-77
2023/03/12 01:21:07;;;;;;;14.25;5.38;;;;;;;1.83;62.90;94416.03;5013568;28;20293;-77
2023/03/12 01:23:33;;;;;;;8.95;4.82;;;;;;;1.98;62.91;94443.47;5028695;28;20138;-77
2023/03/12 01:25:58;;;;;;;9.70;4.88;;;;;;;1.67;63.02;94424.69;5027812;28;20053;-77
2023/03/12 01:28:25;;;;;;;7.65;5.28;;;;;;;1.87;62.59;94479.91;5027845;28;20026;-77
2023/03/12 01:30:51;;;;;;;7.03;5.15;;;;;;;1.44;63.26;94386.41;5028249;28;20037;-77
2023/03/12 01:33:17;;;;;;;14.23;5.25;;;;;;;1.97;63.23;94447.91;5028966;28;20022;-77
2023/03/12 01:35:43;;;;;;;8.25;4.63;;;;;;;1.94;63.37;94438.72;5028395;28;20033;-76
2023/03/12 01:38:13;;;;;;;11.18;5.68;;;;;;;1.80;63.30;94406.06;5020935;28;20030;-78
2023/03/12 01:40:40;;;;;;;10.57;5.38;;;;;;;2.01;62.89;94456.06;5020626;28;20030;-77
2023/03/12 01:43:30;;;;;;;11.40;5.13;;;;;;;2.01;63.55;94449.00;5027111;28;20412;-77
2023/03/12 01:46:25;;;;;;;9.23;4.80;;;;;;;1.32;62.27;94341.25;5008545;28;20073;-77
2023/03/12 01:49:07;;;;;;;8.10;5.60;;;;;;;1.96;63.42;94446.31;5056932;28;20037;-78
2023/03/12 01:51:38;;;;;;;7.07;5.32;;;;;;;1.27;63.17;94369.91;5043194;28;20492;-77
2023/03/12 01:54:08;;;;;;;10.32;5.30;;;;;;;1.52;63.41;94411.34;5026967;28;20518;-77
2023/03/12 01:56:35;;;;;;;9.43;6.00;;;;;;;1.48;63.52;94441.59;5026773;28;20033;-77
2023/03/12 01:59:06;;;;;;;7.03;5.68;;;;;;;1.45;63.55;94411.47;5021847;28;20628;-77
2023/03/12 02:01:32;;;;;;;6.57;5.05;;;;;;;1.06;63.37;94347.09;5026518;28;20419;-77
2023/03/12 02:04:00;;;;;;;11.68;5.68;;;;;;;1.50;63.60;94402.94;5016082;28;20042;-77
2023/03/12 02:06:49;;;;;;;12.65;5.90;;;;;;;1.98;63.26;94465.19;5057576;28;20088;-77
2023/03/12 02:09:19;;;;;;;9.93;5.82;;;;;;;2.04;63.33;94466.06;5027168;28;20041;-78
2023/03/12 02:11:44;;;;;;;9.82;5.45;;;;;;;1.63;63.18;94420.13;5029210;28;20030;-78
2023/03/12 02:14:09;;;;;;;9.85;4.93;;;;;;;2.03;61.91;94472.31;5031147;28;20044;-77
2023/03/12 02:16:35;;;;;;;7.00;4.63;;;;;;;1.54;62.36;94430.19;5030629;28;20056;-77
2023/03/12 02:19:03;;;;;;;8.13;5.07;;;;;;;1.25;62.71;94373.78;5032964;28;20046;-78
2023/03/12 02:21:32;;;;;;;7.50;4.60;;;;;;;1.82;62.65;94438.00;5031984;28;20037;-78
2023/03/12 02:24:16;;;;;;;7.65;4.50;;;;;;;1.16;61.67;94321.13;5032137;28;20075;-77
2023/03/12 02:26:41;;;;;;;14.23;4.63;;;;;;;1.69;61.99;94437.50;5032636;28;20091;-76
2023/03/12 02:29:09;;;;;;;8.20;4.70;;;;;;;1.98;62.43;94462.56;5015068;28;20038;-77
2023/03/12 02:31:47;;;;;;;6.95;4.93;;;;;;;1.89;61.85;94466.59;5012917;28;20551;-77
2023/03/12 02:34:13;;;;;;;9.05;4.55;;;;;;;1.86;62.29;94470.47;5014490;28;20049;-77
2023/03/12 02:36:39;;;;;;;7.10;4.55;;;;;;;1.59;62.85;94435.53;5028825;28;20034;-77
2023/03/12 02:39:04;;;;;;;7.03;4.45;;;;;;;1.82;62.46;94479.84;5012480;28;20049;-77
2023/03/12 02:41:38;;;;;;;6.38;4.30;;;;;;;1.84;63.19;94479.56;5018411;28;20037;-77
2023/03/12 02:44:11;;;;;;;11.95;5.07;;;;;;;1.79;63.51;94475.06;5031364;28;22127;-77
2023/03/12 02:46:43;;;;;;;7.97;4.50;;;;;;;1.87;63.72;94471.28;5031465;28;20041;-77
2023/03/12 02:49:13;;;;;;;8.15;4.60;;;;;;;1.68;63.15;94481.13;5031025;28;20094;-79
2023/03/12 02:51:40;;;;;;;9.60;4.85;;;;;;;1.52;63.60;94440.09;5032405;28;20120;-78
2023/03/12 02:54:06;;;;;;;14.38;4.75;;;;;;;1.27;63.65;94401.25;5015827;28;20041;-78
2023/03/12 02:56:32;;;;;;;10.43;4.13;;;;;;;1.65;63.52;94460.72;5010422;28;20073;-77
2023/03/12 02:58:58;;;;;;;8.20;4.22;;;;;;;1.17;63.88;94390.63;5012275;28;20065;-77
2023/03/12 03:01:23;;;;;;;15.30;5.38;;;;;;;1.47;64.22;94448.63;5030921;28;20041;-77
2023/03/12 03:03:49;;;;;;;11.43;5.28;;;;;;;1.55;64.68;94458.69;5031284;28;20060;-77
2023/03/12 03:06:15;;;;;;;9.40;4.63;;;;;;;1.06;64.48;94373.19;5031502;28;20089;-77
2023/03/12 03:08:41;;;;;;;7.88;4.93;;;;;;;1.40;64.10;94424.47;5029918;28;20351;-77
2023/03/12 03:11:06;;;;;;;8.15;5.15;;;;;;;1.37;64.80;94419.72;5030426;28;20032;-77
2023/03/12 03:13:32;;;;;;;7.80;4.80;;;;;;;1.50;64.69;94450.00;5029692;28;20029;-77
2023/03/12 03:16:00;;;;;;;8.10;5.55;;;;;;;1.60;64.75;94444.16;5031438;28;20029;-77
2023/03/12 03:18:27;;;;;;;8.88;4.55;;;;;;;1.49;64.89;94443.19;5031105;28;20395;-78
2023/03/12 03:21:04;;;;;;;11.27;5.40;;;;;;;1.23;64.72;94426.25;5029940;28;20042;-77
2023/03/12 03:23:30;;;;;;;11.40;5.85;;;;;;;1.33;64.88;94446.53;5031119;28;20065;-77
2023/03/12 03:25:58;;;;;;;6.97;4.40;;;;;;;0.89;64.51;94382.78;5017234;28;20072;-77
2023/03/12 03:28:25;;;;;;;21.63;5.53;;;;;;;1.58;65.08;94482.78;5009595;28;20397;-77
2023/03/12 03:30:52;;;;;;;9.05;5.15;;;;;;;1.67;64.78;94474.34;5011366;28;20267;-77
2023/03/12 03:33:18;;;;;;;7.50;4.88;;;;;;;1.59;63.96;94493.00;5009532;28;20065;-77
2023/03/12 03:35:44;;;;;;;6.00;4.25;;;;;;;1.07;63.68;94413.91;5011529;28;20073;-77
2023/03/12 03:38:09;;;;;;;7.53;4.93;;;;;;;1.47;64.54;94471.34;5030717;28;20103;-77
2023/03/12 03:40:34;;;;;;;8.77;5.20;;;;;;;1.28;64.10;94444.63;5029783;28;20298;-77
2023/03/12 03:43:00;;;;;;;7.70;4.97;;;;;;;0.73;64.22;94387.72;5025871;28;20052;-77
2023/03/12 03:45:25;;;;;;;7.80;4.47;;;;;;;1.40;64.31;94497.63;5034689;28;20562;-78
2023/03/12 03:47:51;;;;;;;12.10;5.45;;;;;;;1.08;64.16;94457.28;5024377;28;20077;-78
2023/03/12 03:50:16;;;;;;;6.72;4.70;;;;;;;1.33;63.96;94504.00;5018412;28;20025;-78
2023/03/12 03:52:42;;;;;;;11.30;4.88;;;;;;;1.26;63.68;94487.69;5030568;28;20039;-77
2023/03/12 03:55:07;;;;;;;9.75;4.90;;;;;;;1.38;63.89;94496.25;5029676;28;20037;-78
2023/03/12 03:57:33;;;;;;;6.63;4.43;;;;;;;0.93;63.61;94438.72;5021488;28;20091;-78
2023/03/12 03:59:59;;;;;;;8.27;5.43;;;;;;;0.49;64.18;94396.63;5010783;28;20038;-78
2023/03/12 04:02:25;;;;;;;9.27;4.60;;;;;;;0.09;64.51;94335.78;5022617;28;20075;-78
2023/03/12 04:04:51;;;;;;;11.73;5.35;;;;;;;1.25;64.62;94512.22;5030446;28;20124;-77
2023/03/12 04:07:20;;;;;;;7.80;4.50;;;;;;;0.35;63.65;94380.44;5029474;28;20056;-78
2023/03/12 04:09:45;;;;;;;11.02;5.38;;;;;;;0.88;63.33;94524.78;5028675;28;20037;-77
2023/03/12 04:12:11;;;;;;;8.45;4.18;;;;;;;0.22;63.14;94391.13;5030018;28;20411;-77
2023/03/12 04:14:41;;;;;;;8.05;4.38;;;;;;;0.58;63.07;94426.56;5029085;28;20128;-77
2023/03/12 04:17:07;;;;;;;9.55;4.80;;;;;;;1.16;62.79;94533.47;5030321;28;20036;-78
2023/03/12 04:19:32;;;;;;;6.18;4.30;;;;;;;0.69;63.19;94456.25;5029757;28;20037;-77
2023/03/12 04:21:58;;;;;;;7.70;4.10;;;;;;;1.08;62.51;94506.91;5030287;28;20412;-78
2023/03/12 04:24:23;;;;;;;12.18;3.85;;;;;;;0.67;61.37;94464.31;5029873;28;20127;-77
2023/03/12 04:26:50;;;;;;;8.57;4.13;;;;;;;0.35;59.71;94421.38;5028795;28;20048;-78
2023/03/12 04:29:16;;;;;;;6.15;3.28;;;;;;;0.78;60.57;94507.88;5028848;28;20032;-77
2023/03/12 04:31:41;;;;;;;9.88;3.60;;;;;;;0.96;60.67;94568.81;5020521;28;20030;-78
2023/03/12 04:34:08;;;;;;;23.50;4.75;;;;;;;0.68;60.57;94517.31;5040465;28;20028;-77
2023/03/12 04:36:33;;;;;;;5.05;3.47;;;;;;;0.76;60.04;94543.06;5019812;28;20837;-78
2023/03/12 04:38:59;;;;;;;10.13;3.47;;;;;;;0.39;60.06;94480.66;5010126;28;20042;-77
2023/03/12 04:41:24;;;;;;;8.80;3.90;;;;;;;1.17;59.76;94576.03;5009967;28;20069;-77
2023/03/12 04:43:50;;;;;;;8.57;3.28;;;;;;;0.35;59.44;94510.84;5022529;28;20036;-77
2023/03/12 04:46:15;;;;;;;8.98;3.20;;;;;;;0.52;59.76;94491.91;5029921;28;20086;-77
2023/03/12 04:48:40;;;;;;;8.77;3.50;;;;;;;-0.01;60.04;94433.63;5029619;28;20629;-78
2023/03/12 04:51:06;;;;;;;10.63;3.30;;;;;;;0.81;59.34;94608.44;5044460;28;20045;-77
2023/03/12 04:53:31;;;;;;;6.38;3.78;;;;;;;0.39;60.03;94524.22;5028450;28;20064;-77
2023/03/12 04:55:58;;;;;;;9.63;3.10;;;;;;;0.22;59.76;94479.78;5010687;28;20069;-77
2023/03/12 04:58:23;;;;;;;5.50;3.20;;;;;;;0.43;59.88;94535.81;5037417;28;20025;-77
2023/03/12 05:00:49;;;;;;;7.15;3.38;;;;;;;0.76;60.12;94583.00;5011256;28;20057;-78
2023/03/12 05:03:16;;;;;;;5.03;3.20;;;;;;;0.84;59.40;94628.06;5028600;28;20502;-77
2023/03/12 05:05:41;;;;;;;7.55;3.67;;;;;;;0.90;60.10;94614.91;5014220;28;20044;-77
2023/03/12 05:08:07;;;;;;;11.32;4.18;;;;;;;0.82;60.08;94624.88;5008908;28;20038;-78
2023/03/12 05:10:33;;;;;;;4.90;3.45;;;;;;;0.26;60.15;94527.03;5009531;28;20038;-78
2023/03/12 05:12:58;;;;;;;6.55;3.50;;;;;;;0.23;60.40;94528.28;5023136;28;20515;-78
2023/03/12 05:15:24;;;;;;;7.20;3.50;;;;;;;0.64;60.66;94582.19;5044408;28;20573;-77
2023/03/12 05:17:49;;;;;;;11.98;3.63;;;;;;;0.45;60.30;94565.06;5011761;28;20038;-78
2023/03/12 05:20:16;;;;;;;8.98;3.42;;;;;;;0.60;60.18;94594.13;5020020;28;20060;-77
2023/03/12 05:22:42;;;;;;;5.03;2.97;;;;;;;0.82;60.18;94656.22;5043612;28;20038;-77
2023/03/12 05:25:08;;;;;;;8.35;3.47;;;;;;;0.35;60.97;94567.44;5028201;28;20100;-77
2023/03/12 05:27:36;;;;;;;12.43;3.30;;;;;;;0.61;60.85;94618.41;5029137;28;20120;-78
2023/03/12 05:30:04;;;;;;;7.07;3.58;;;;;;;0.51;61.25;94584.25;5029408;28;20045;-77
2023/03/12 05:32:29;;;;;;;11.95;3.75;;;;;;;0.14;60.88;94519.22;5008710;28;20049;-77
2023/03/12 05:34:55;;;;;;;5.03;2.97;;;;;;;-0.03;61.41;94519.06;5010962;28;20041;-77
2023/03/12 05:37:20;;;;;;;6.78;3.90;;;;;;;0.10;60.87;94520.66;5029288;28;20041;-78
2023/03/12 05:39:46;;;;;;;6.00;3.42;;;;;;;0.41;60.45;94576.97;5027739;28;20030;-77
2023/03/12 05:42:13;;;;;;;16.58;4.38;;;;;;;0.98;59.98;94676.44;5022088;28;20162;-77
2023/03/12 05:44:39;;;;;;;6.75;3.42;;;;;;;0.89;58.99;94665.53;5007770;28;20053;-77
2023/03/12 05:47:04;;;;;;;13.32;5.25;;;;;;;0.99;60.03;94673.56;5009855;28;20038;-77
2023/03/12 05:49:30;;;;;;;8.88;2.63;;;;;;;1.07;57.18;94669.84;5022275;28;20104;-77
2023/03/12 05:51:55;;;;;;;7.88;3.05;;;;;;;1.09;58.19;94678.25;5022442;28;20069;-77
2023/03/12 05:54:22;;;;;;;7.78;3.45;;;;;;;1.09;58.41;94679.03;5012512;28;20095;-77
2023/03/12 05:56:47;;;;;;;11.52;3.05;;;;;;;0.70;58.11;94617.81;5013572;28;20053;-78
2023/03/12 05:59:13;;;;;;;5.13;3.25;;;;;;;0.91;57.60;94626.16;5012013;28;20045;-77
2023/03/12 06:01:39;;;;;;;6.57;3.28;;;;;;;1.12;57.29;94675.19;5013423;28;20475;-77
2023/03/12 06:04:05;;;;;;;4.25;2.70;;;;;;;1.28;57.25;94689.41;5027928;28;20518;-78
2023/03/12 06:06:32;;;;;;;6.95;3.33;;;;;;;1.40;57.53;94700.63;5032798;28;20079;-77
2023/03/12 06:08:58;;;;;;;5.22;3.00;;;;;;;1.46;57.12;94697.09;5031436;28;20037;-77
2023/03/12 06:11:23;;;;;;;6.05;2.78;;;;;;;0.57;56.19;94562.47;5032912;28;20029;-77
2023/03/12 06:13:49;;;;;;;4.32;2.40;;;;;;;0.16;54.55;94504.13;5029633;28;20029;-78
2023/03/12 06:16:18;;;;;;;4.68;2.95;;;;;;;1.42;55.33;94698.59;5011550;28;20073;-77
2023/03/12 06:18:43;;;;;;;5.72;3.25;;;;;;;1.37;54.78;94729.84;5016987;28;20037;-77
2023/03/12 06:21:18;;;;;;;4.90;2.92;;;;;;;1.22;54.93;94722.41;5032728;28;20460;-79
2023/03/12 06:23:45;;;;;;;4.38;2.83;;;;;;;0.88;54.99;94650.88;5031630;28;20627;-77
2023/03/12 06:26:11;;;;;;;7.47;2.95;;;;;;;1.26;55.24;94733.22;5032672;28;20041;-77
2023/03/12 06:28:37;;;;;;;5.07;2.85;;;;;;;0.64;55.43;94636.22;5031059;28;20481;-79
2023/03/12 06:31:03;;;;;;;7.32;3.03;;;;;;;1.26;55.18;94744.47;5032190;28;20037;-78
2023/03/12 06:33:29;;;;;;;5.75;3.38;;;;;;;1.25;55.45;94753.31;5031256;28;20029;-78
2023/03/12 06:35:56;;;;;;;4.18;2.83;;;;;;;0.93;55.08;94694.56;5047263;28;20052;-78
2023/03/12 06:38:23;;;;;;;11.38;2.53;;;;;;;1.16;54.75;94736.38;5017268;28;20539;-78
2023/03/12 06:41:00;;;;;;;8.00;3.05;;;;;;;1.05;55.31;94750.25;5012575;28;20389;-78
2023/03/12 06:43:28;;;;;;;5.57;3.15;;;;;;;1.20;55.93;94747.19;5011722;28;20393;-78
2023/03/12 06:45:55;;;;;;;4.88;3.42;;;;;;;1.18;56.02;94778.75;5012811;28;20049;-77
2023/03/12 06:48:21;;;;;;;4.47;2.90;;;;;;;1.24;55.21;94766.59;5028730;28;20036;-77
2023/03/12 06:50:47;;;;;;;4.93;2.92;;;;;;;0.70;55.52;94675.25;5010775;28;20037;-77
2023/03/12 06:53:12;;;;;;;5.88;2.83;;;;;;;1.32;55.33;94759.22;5030630;28;20476;-78
2023/03/12 06:55:37;;;;;;;4.38;2.70;;;;;;;1.06;53.90;94729.13;5024804;28;20034;-77
2023/03/12 06:58:04;;;;;;;11.13;3.72;;;;;;;1.32;53.39;94767.06;5012022;28;20033;-77
2023/03/12 07:00:31;;;;;;;3.67;2.72;;;;;;;1.02;53.91;94719.34;5012444;28;20088;-78
2023/03/12 07:02:56;;;;;;;6.50;3.17;;;;;;;0.84;53.80;94681.06;5011331;28;20153;-77
2023/03/12 07:05:23;;;;;;;5.72;3.13;;;;;;;1.26;53.68;94728.00;5019346;28;20037;-77
2023/03/12 07:07:48;;;;;;;9.43;3.92;;;;;;;1.50;52.06;94810.59;5020356;28;20119;-78
2023/03/12 07:10:14;;;;;;;5.35;3.33;;;;;;;1.16;52.08;94783.41;5044972;28;20514;-78
2023/03/12 07:12:39;;;;;;;8.63;3.10;;;;;;;1.20;52.01;94775.94;5026823;28;20537;-78
2023/03/12 07:15:05;;;;;;;7.38;3.00;;;;;;;0.90;53.57;94729.78;5016413;28;20848;-78
2023/03/12 07:17:31;;;;;;;5.28;3.28;;;;;;;1.11;53.71;94737.06;5031719;28;20076;-78
2023/03/12 07:19:56;;;;;;;5.63;2.60;;;;;;;1.25;52.21;94789.91;5033193;28;20069;-78
2023/03/12 07:22:22;;;;;;;4.97;2.60;;;;;;;1.25;53.25;94750.72;5030830;28;20042;-77
2023/03/12 07:24:47;;;;;;;5.50;3.00;;;;;;;1.53;52.84;94791.84;5026824;28;20041;-77
2023/03/12 07:27:13;;;;;;;6.22;2.72;;;;;;;1.17;52.36;94751.03;5028024;28;20029;-78
2023/03/12 07:29:38;;;;;;;3.97;2.60;;;;;;;0.75;51.81;94704.09;5031083;28;20061;-77
2023/03/12 07:32:04;;;;;;;5.32;3.00;;;;;;;0.35;52.28;94630.81;5030696;28;20022;-77
2023/03/12 07:34:29;;;;;;;9.02;3.00;;;;;;;1.35;52.73;94774.47;5031119;28;20535;-78
2023/03/12 07:36:55;;;;;;;7.78;3.03;;;;;;;1.43;53.42;94781.19;5030567;28;20091;-77
2023/03/12 07:39:21;;;;;;;6.35;2.63;;;;;;;0.81;52.89;94671.06;5046451;28;20025;-78
2023/03/12 07:41:46;;;;;;;4.55;2.85;;;;;;;1.09;52.28;94770.44;5029092;28;20043;-78
2023/03/12 07:44:12;;;;;;;6.07;2.92;;;;;;;0.77;53.09;94698.63;5030260;28;20054;-78
2023/03/12 07:46:37;;;;;;;5.95;2.90;;;;;;;1.69;52.59;94814.69;5045772;28;20042;-77
2023/03/12 07:49:03;;;;;;;3.45;2.42;;;;;;;1.76;52.23;94822.44;5030863;28;20060;-78
2023/03/12 07:51:29;;;;;;;4.85;2.78;;;;;;;1.86;52.19;94833.94;5015018;28;20038;-77
2023/03/12 07:53:55;;;;;;;7.07;2.45;;;;;;;1.89;52.22;94837.91;5008913;28;20037;-77
2023/03/12 07:56:21;;;;;;;7.40;2.47;;;;;;;1.92;52.20;94838.25;5028189;28;20095;-79
2023/03/12 07:58:47;;;;;;;4.07;2.65;;;;;;;1.90;51.92;94845.53;5010838;28;20500;-78
2023/03/12 08:01:13;;;;;;;10.85;2.78;;;;;;;1.93;52.26;94813.69;5017635;28;20041;-77
2023/03/12 08:03:38;;;;;;;7.20;2.70;;;;;;;1.49;51.89;94759.38;5028816;28;20029;-78
2023/03/12 08:06:06;;;;;;;3.40;2.45;;;;;;;1.92;49.75;94829.59;5024374;28;20034;-78
2023/03/12 08:08:32;;;;;;;4.30;2.65;;;;;;;1.80;50.84;94831.44;5016460;28;20042;-77
2023/03/12 08:10:59;;;;;;;5.93;2.75;;;;;;;1.85;51.87;94858.47;5044989;28;20572;-78
2023/03/12 08:13:25;;;;;;;3.60;2.53;;;;;;;1.31;51.50;94790.81;5019944;28;20089;-78
2023/03/12 08:15:51;;;;;;;4.85;2.90;;;;;;;1.82;51.84;94864.19;5010172;28;20172;-78
2023/03/12 08:18:18;;;;;;;8.02;3.42;;;;;;;1.04;51.37;94723.31;5019261;28;20063;-78
2023/03/12 08:20:43;;;;;;;5.55;2.67;;;;;;;1.80;50.95;94841.88;5010047;28;20088;-78
2023/03/12 08:23:09;;;;;;;5.45;3.10;;;;;;;1.49;51.21;94793.34;5027797;28;20396;-79
2023/03/12 08:25:35;;;;;;;4.28;2.75;;;;;;;1.61;51.34;94809.00;5030086;28;20037;-78
2023/03/12 08:28:04;;;;;;;4.72;2.70;;;;;;;1.81;50.75;94835.63;5009437;28;20038;-78
2023/03/12 08:30:30;;;;;;;6.20;2.80;;;;;;;1.48;50.50;94791.75;5010992;28;20026;-78
2023/03/12 08:32:56;;;;;;;6.25;3.35;;;;;;;1.60;50.52;94844.03;5019646;28;20040;-78
2023/03/12 08:35:22;;;;;;;5.70;2.78;;;;;;;1.56;50.25;94820.16;5028395;28;20040;-78
2023/03/12 08:37:47;;;;;;;4.18;2.72;;;;;;;1.17;50.59;94782.38;5027893;28;20029;-78
2023/03/12 08:40:13;;;;;;;6.15;3.33;;;;;;;2.09;50.27;94889.88;5025068;28;20040;-78
2023/03/12 08:42:43;;;;;;;4.03;3.00;;;;;;;2.23;50.19;94878.16;5009976;28;20500;-77
2023/03/12 08:45:10;;;;;;;7.45;3.55;;;;;;;2.13;50.93;94852.59;5010141;28;20086;-78
2023/03/12 08:47:38;;;;;;;5.50;3.03;;;;;;;2.16;50.76;94825.94;5010032;28;20030;-78
2023/03/12 08:50:04;;;;;;;10.60;3.63;;;;;;;2.11;50.17;94788.44;5009774;28;20030;-78
2023/03/12 08:52:30;;;;;;;4.07;2.70;;;;;;;2.56;49.56;94882.78;5019126;28;20112;-78
2023/03/12 08:54:55;;;;;;;4.35;2.20;;;;;;;2.69;49.52;94879.91;5029846;28;20111;-77
2023/03/12 08:57:20;;;;;;;5.88;3.20;;;;;;;2.37;50.13;94808.03;5029702;28;20037;-78
2023/03/12 08:59:46;;;;;;;4.65;2.80;;;;;;;2.81;48.84;94880.69;5027614;28;20031;-78
2023/03/12 09:02:11;;;;;;;9.10;3.10;;;;;;;2.62;49.38;94860.91;5027418;28;20037;-78
2023/03/12 09:04:37;;;;;;;6.00;3.03;;;;;;;2.43;49.66;94809.75;5028130;28;20041;-77
2023/03/12 09:07:03;;;;;;;11.70;3.17;;;;;;;2.48;49.28;94813.25;5029540;28;20184;-78
2023/03/12 09:09:29;;;;;;;4.55;2.55;;;;;;;2.58;49.20;94850.13;5028798;28;20041;-78
2023/03/12 09:11:54;;;;;;;4.85;2.78;;;;;;;2.61;49.44;94839.16;5044550;28;20029;-78
2023/03/12 09:14:19;;;;;;;6.20;3.10;;;;;;;2.79;49.10;94861.78;5023976;28;20026;-78
2023/03/12 09:16:45;;;;;;;5.60;3.40;;;;;;;2.40;49.10;94834.56;5013808;28;20090;-77
2023/03/12 09:19:10;;;;;;;5.13;2.90;;;;;;;2.87;49.12;94897.28;5047684;28;20124;-78
2023/03/12 09:21:36;;;;;;;4.70;2.97;;;;;;;2.94;48.34;94897.94;5029274;28;20025;-77
2023/03/12 09:24:01;;;;;;;7.20;3.35;;;;;;;2.50;48.49;94820.88;5027892;28;20069;-78
2023/03/12 09:26:27;;;;;;;8.93;3.55;;;;;;;3.15;49.94;94870.31;5029146;28;20039;-78
2023/03/12 09:28:52;;;;;;;6.32;3.40;;;;;;;2.65;48.80;94805.47;5018044;28;20046;-78
2023/03/12 09:31:18;;;;;;;6.30;3.08;;;;;;;2.12;47.50;94748.16;5021433;28;20090;-78
2023/03/12 09:33:43;;;;;;;4.65;2.83;;;;;;;3.08;48.77;94888.78;5043750;28;20507;-78
2023/03/12 09:36:09;;;;;;;5.50;3.33;;;;;;;2.60;49.36;94824.47;5044122;28;20495;-78
2023/03/12 09:38:36;;;;;;;6.10;2.83;;;;;;;2.54;49.27;94819.38;5027727;28;20499;-78
2023/03/12 09:41:04;;;;;;;6.82;2.90;;;;;;;2.92;48.47;94897.38;5028794;28;20487;-78
2023/03/12 09:43:57;;;;;;;6.97;2.95;;;;;;;2.46;48.93;94790.94;5042896;28;20045;-77
2023/03/12 09:46:29;;;;;;;6.18;3.20;;;;;;;2.75;48.38;94839.69;5008376;28;20527;-78
2023/03/12 09:48:59;;;;;;;6.03;3.53;;;;;;;3.03;48.71;94873.78;5035937;28;20041;-78
2023/03/12 09:51:40;;;;;;;6.00;3.28;;;;;;;2.70;47.49;94816.03;5028788;28;20041;-78
2023/03/12 09:54:13;;;;;;;4.68;2.70;;;;;;;3.19;48.25;94872.22;5027233;28;20087;-79
2023/03/12 09:56:39;;;;;;;9.77;2.92;;;;;;;2.55;48.11;94766.00;5027290;28;20029;-78
2023/03/12 09:59:10;;;;;;;9.30;3.13;;;;;;;3.29;47.33;94882.88;5044219;28;20033;-78
2023/03/12 10:01:53;;;;;;;;;;;;;;;3.35;47.80;94886.41;5025000;28;20044;-78
2023/03/12 10:04:33;;;;;;;5.57;3.08;;;;;;;3.53;47.81;94878.31;5028462;28;20403;-78
2023/03/12 10:07:17;;;;;;;4.55;3.20;;;;;;;3.68;47.76;94883.03;5044309;28;20564;-78
2023/03/12 10:09:51;;;;;;;4.97;2.92;;;;;;;3.70;46.61;94841.63;5019936;28;20030;-78
2023/03/12 10:12:42;;;;;;;6.88;3.25;;;;;;;4.03;45.80;94856.56;5007587;28;20022;-78
2023/03/12 10:15:38;;;;;;;3.77;2.47;;;;;;;4.55;44.50;94865.69;5023732;28;20034;-78
2023/03/12 10:18:17;;;;;;;8.40;3.05;;;;;;;5.36;44.07;94839.50;5026297;28;20272;-78
2023/03/12 10:20:56;;;;;;;2.75;2.10;;;;;;;6.29;40.65;94871.59;5023423;28;20044;-78
2023/03/12 10:23:45;;;;;;;5.03;2.78;;;;;;;6.73;39.16;94804.38;5008027;28;20026;-78
2023/03/12 10:26:21;;;;;;;6.78;2.83;;;;;;;8.26;36.59;94866.88;5008955;28;20045;-78
2023/03/12 10:28:49;;;;;;;5.22;2.45;;;;;;;8.67;35.38;94872.91;5023126;28;20060;-78
2023/03/12 10:31:22;;;;;;;3.28;1.95;;;;;;;9.28;33.88;94862.09;5027550;28;20029;-78
2023/03/12 10:34:00;;;;;;;3.28;2.40;;;;;;;9.19;34.83;94819.53;5025994;28;20057;-79
2023/03/12 10:36:38;;;;;;;7.95;3.05;;;;;;;9.65;34.09;94869.56;5025220;28;20022;-78
2023/03/12 10:39:16;;;;;;;4.90;2.40;;;;;;;9.13;33.62;94801.31;5028797;28;20033;-78
2023/03/12 10:41:43;;;;;;;7.25;3.00;;;;;;;9.51;33.67;94832.31;5030790;28;20470;-78
2023/03/12 10:44:18;;;;;;;4.63;2.72;;;;;;;10.21;33.52;94869.97;5031767;28;20053;-78
2023/03/12 10:47:04;;;;;;;5.03;2.38;;;;;;;9.37;35.11;94872.91;5032090;28;20025;-78
2023/03/12 10:49:33;;;;;;;6.75;3.15;;;;;;;8.94;35.29;94866.47;5014806;28;20036;-79
2023/03/12 10:52:15;;;;;;;3.97;2.60;;;;;;;8.62;34.63;94813.97;5011713;28;20033;-78
2023/03/12 10:54:43;;;;;;;4.90;2.88;;;;;;;9.18;35.61;94786.22;5030197;28;20103;-78
2023/03/12 10:57:10;;;;;;;6.00;2.47;;;;;;;9.35;33.58;94793.00;5031815;28;20025;-78
2023/03/12 10:59:41;;;;;;;3.20;2.25;;;;;;;9.86;33.93;94833.91;5031942;28;20036;-78
2023/03/12 11:02:38;;;;;;;4.05;2.58;;;;;;;9.85;33.76;94869.41;5030658;28;20519;-78
2023/03/12 11:05:29;;;;;;;4.55;2.72;;;;;;;9.28;34.52;94860.25;5029962;28;20042;-78
2023/03/12 11:07:55;;;;;;;4.15;2.47;;;;;;;7.73;36.12;94789.00;5030365;28;20064;-78
2023/03/12 11:10:43;;;;;;;7.88;3.58;;;;;;;8.34;36.93;94839.94;5011791;28;20040;-78
2023/03/12 11:13:34;;;;;;;4.72;2.90;;;;;;;9.01;35.94;94856.38;5010339;28;20041;-78
2023/03/12 11:16:02;;;;;;;5.72;2.50;;;;;;;8.88;35.34;94760.72;5010341;28;20587;-78
2023/03/12 11:18:34;;;;;;;5.53;2.47;;;;;;;9.87;34.24;94816.97;5020947;28;20041;-78
2023/03/12 11:21:08;;;;;;;7.03;2.58;;;;;;;10.15;33.89;94849.03;5029582;28;20086;-78
2023/03/12 11:23:36;;;;;;;5.43;2.90;;;;;;;10.04;34.13;94767.03;5042115;28;20531;-78
2023/03/12 11:26:13;;;;;;;5.55;2.72;;;;;;;9.67;32.85;94852.34;5029507;28;20041;-78
2023/03/12 11:28:42;;;;;;;5.97;2.63;;;;;;;10.06;33.34;94847.03;5058477;28;20503;-78
2023/03/12 11:31:32;;;;;;;5.35;2.67;;;;;;;9.70;33.09;94821.84;5011918;28;20061;-78
2023/03/12 11:34:04;;;;;;;3.42;2.33;;;;;;;8.58;33.39;94768.78;5013215;28;20069;-78
2023/03/12 11:36:45;;;;;;;5.50;2.63;;;;;;;8.82;33.45;94806.75;5010085;28;20034;-78
2023/03/12 11:39:45;;;;;;;2.47;2.10;;;;;;;9.40;32.53;94854.63;5010467;28;20114;-78
2023/03/12 11:42:47;;;;;;;5.22;2.50;;;;;;;9.15;33.66;94847.63;5006231;28;20340;-78
2023/03/12 11:45:18;;;;;;;3.88;2.40;;;;;;;8.86;34.51;94838.72;5009732;28;20496;-78